createdAt,value
2022-10-22T00:01:03.310Z,15.32
2022-10-22T00:06:06.445Z,15.10
2022-10-22T00:11:16.900Z,15.95
2022-10-22T00:16:19.853Z,14.95
2022-10-22T00:21:22.671Z,15.82
2022-10-22T00:26:26.924Z,15.63
2022-10-22T00:31:30.533Z,14.98
2022-10-22T00:36:33.326Z,14.50
2022-10-22T00:41:37.760Z,15.15
2022-10-22T00:46:41.820Z,15.13
2022-10-22T00:51:44.645Z,16.00
2022-10-22T00:56:49.226Z,14.95
2022-10-22T01:01:53.268Z,14.73
2022-10-22T01:06:56.115Z,14.80
2022-10-22T01:12:07.969Z,15.10
2022-10-22T01:17:17.650Z,15.85
2022-10-22T01:22:26.278Z,14.45
2022-10-22T01:27:53.860Z,15.07
2022-10-22T01:33:02.684Z,15.90
2022-10-22T01:38:09.921Z,16.17
2022-10-22T01:43:13.125Z,16.25
2022-10-22T01:48:30.128Z,16.27
2022-10-22T01:53:41.921Z,16.65
2022-10-22T01:58:54.475Z,16.33
2022-10-22T02:04:07.343Z,16.17
2022-10-22T02:09:12.034Z,16.40
2022-10-22T02:14:17.133Z,16.13
2022-10-22T02:19:27.190Z,16.42
2022-10-22T02:24:30.581Z,15.95
2022-10-22T02:29:40.091Z,17.20
2022-10-22T02:34:45.376Z,16.88
2022-10-22T02:39:49.409Z,18.17
2022-10-22T02:44:52.197Z,17.60
2022-10-22T02:49:56.294Z,17.40
2022-10-22T02:54:59.133Z,17.05
2022-10-22T03:00:01.968Z,17.85
2022-10-22T03:05:07.029Z,18.23
2022-10-22T03:10:10.846Z,17.25
2022-10-22T03:15:13.692Z,19.08
2022-10-22T03:20:18.033Z,17.65
2022-10-22T03:25:23.692Z,18.45
2022-10-22T03:30:26.436Z,18.98
2022-10-22T03:35:31.757Z,18.80
2022-10-22T03:40:34.690Z,19.50
2022-10-22T03:50:42.695Z,18.65
2022-10-22T03:55:45.492Z,17.98
2022-10-22T04:00:48.349Z,18.35
2022-10-22T04:05:52.723Z,18.17
2022-10-22T04:10:55.450Z,18.13
2022-10-22T04:16:07.962Z,20.48
2022-10-22T04:21:14.186Z,20.55
2022-10-22T04:26:18.288Z,19.73
2022-10-22T04:31:23.131Z,20.70
2022-10-22T04:36:28.439Z,19.85
2022-10-22T04:41:33.222Z,19.50
2022-10-22T04:46:36.617Z,20.27
2022-10-22T04:51:40.986Z,21.55
2022-10-22T04:56:43.743Z,20.17
2022-10-22T05:01:46.528Z,19.05
2022-10-22T05:06:50.933Z,20.38
2022-10-22T05:11:54.592Z,19.95
2022-10-22T05:16:57.318Z,20.85
2022-10-22T05:22:03.632Z,20.98
2022-10-22T05:27:06.830Z,21.45
2022-10-22T05:32:10.686Z,21.95
2022-10-22T05:37:14.799Z,20.83
2022-10-22T05:42:17.520Z,21.65
2022-10-22T05:47:20.324Z,20.88
2022-10-22T05:52:24.563Z,20.02
2022-10-22T05:57:27.269Z,20.63
2022-10-22T06:02:30.163Z,20.73
2022-10-22T06:07:34.822Z,21.00
2022-10-22T06:12:37.647Z,22.15
2022-10-22T06:17:40.876Z,20.85
2022-10-22T06:22:44.945Z,21.83
2022-10-22T06:27:50.521Z,21.05
2022-10-22T06:32:53.218Z,22.65
2022-10-22T06:37:57.321Z,22.27
2022-10-22T06:43:02.828Z,20.83
2022-10-22T06:48:06.005Z,21.20
2022-10-22T06:53:10.149Z,22.20
2022-10-22T06:58:12.978Z,21.17
2022-10-22T07:03:16.490Z,20.13
2022-10-22T07:08:20.569Z,19.38
2022-10-22T07:13:23.621Z,20.02
2022-10-22T07:18:26.551Z,19.00
2022-10-22T07:23:30.718Z,18.95
2022-10-22T07:28:33.516Z,18.10
2022-10-22T07:33:37.283Z,17.00
2022-10-22T07:38:41.387Z,18.35
2022-10-22T07:43:45.002Z,17.20
2022-10-22T07:48:48.212Z,16.10
2022-10-22T07:53:52.346Z,16.88
2022-10-22T07:58:55.120Z,16.92
2022-10-22T08:03:57.993Z,16.40
2022-10-22T08:09:02.469Z,13.93
2022-10-22T08:14:05.399Z,13.15
2022-10-22T08:19:08.200Z,12.85
2022-10-22T08:24:13.210Z,12.20
2022-10-22T08:29:16.151Z,11.85
2022-10-22T08:34:19.070Z,11.07
2022-10-22T08:39:23.251Z,9.93
2022-10-22T08:44:47.899Z,10.05
2022-10-22T08:49:50.945Z,8.88
2022-10-22T08:54:58.255Z,7.90
2022-10-22T09:00:07.337Z,8.40
2022-10-22T09:05:29.406Z,8.15
2022-10-22T09:10:37.722Z,7.40
2022-10-22T09:15:43.730Z,7.35
2022-10-22T09:20:55.631Z,8.05
2022-10-22T09:31:03.649Z,6.93
2022-10-22T09:36:07.921Z,6.50
2022-10-22T09:41:12.044Z,6.95
2022-10-22T09:46:18.074Z,6.40
2022-10-22T09:51:23.513Z,6.75
2022-10-22T09:56:30.232Z,6.13
2022-10-22T10:01:35.657Z,5.78
2022-10-22T10:06:41.008Z,5.85
2022-10-22T10:11:50.414Z,4.70
2022-10-22T10:16:59.677Z,4.57
2022-10-22T10:22:11.809Z,4.82
2022-10-22T10:27:23.882Z,4.10
2022-10-22T10:32:45.852Z,4.43
2022-10-22T10:38:00.909Z,3.70
2022-10-22T10:43:12.248Z,3.28
2022-10-22T10:48:38.800Z,3.78
2022-10-22T10:54:16.363Z,3.20
2022-10-22T10:59:44.153Z,3.45
2022-10-22T11:05:14.070Z,3.10
2022-10-22T11:10:28.744Z,2.60
2022-10-22T11:15:36.047Z,2.50
2022-10-22T11:20:51.768Z,2.50
2022-10-22T11:25:54.643Z,3.58
2022-10-22T11:31:04.027Z,3.10
2022-10-22T11:36:08.602Z,3.38
2022-10-22T11:41:15.331Z,2.90
2022-10-22T11:46:31.279Z,2.50
2022-10-22T11:51:36.436Z,3.15
2022-10-22T11:56:40.328Z,2.90
2022-10-22T12:01:49.069Z,3.70
2022-10-22T12:07:00.761Z,3.00
2022-10-22T12:12:16.957Z,3.72
2022-10-22T12:17:23.777Z,3.15
2022-10-22T12:22:29.262Z,3.78
2022-10-22T12:27:37.332Z,4.20
2022-10-22T12:32:41.754Z,4.03
2022-10-22T12:37:45.050Z,4.43
2022-10-22T12:42:49.765Z,4.05
2022-10-22T12:47:59.251Z,4.85
2022-10-22T12:53:02.210Z,5.55
2022-10-22T12:58:07.393Z,3.90
2022-10-22T13:03:26.678Z,4.50
2022-10-22T13:08:47.489Z,3.60
2022-10-22T13:13:51.038Z,3.25
2022-10-22T13:18:55.984Z,3.53
2022-10-22T13:24:00.868Z,4.03
2022-10-22T13:29:10.509Z,3.53
2022-10-22T13:34:18.419Z,4.15
2022-10-22T13:39:23.073Z,3.97
2022-10-22T13:44:25.971Z,3.97
2022-10-22T13:49:30.176Z,3.80
2022-10-22T13:54:33.077Z,3.70
2022-10-22T13:59:35.868Z,3.92
2022-10-22T14:04:42.048Z,3.53
2022-10-22T14:09:45.239Z,3.00
2022-10-22T14:14:48.170Z,4.53
2022-10-22T14:19:52.906Z,4.10
2022-10-22T14:24:55.741Z,2.40
2022-10-22T14:29:59.634Z,3.22
2022-10-22T14:35:04.015Z,3.78
2022-10-22T14:40:08.451Z,2.78
2022-10-22T14:45:17.075Z,2.78
2022-10-22T14:50:21.595Z,3.65
2022-10-22T14:55:26.203Z,6.95
2022-10-22T15:00:29.028Z,6.28
2022-10-22T15:05:33.225Z,4.28
2022-10-22T15:10:38.263Z,3.20
2022-10-22T15:15:43.819Z,3.22
2022-10-22T15:20:56.419Z,3.47
2022-10-22T15:25:59.594Z,4.75
2022-10-22T15:31:02.567Z,4.30
2022-10-22T15:36:14.113Z,3.28
2022-10-22T15:41:16.927Z,3.70
2022-10-22T15:46:21.770Z,4.30
2022-10-22T15:51:26.136Z,4.53
2022-10-22T15:56:30.598Z,4.10
2022-10-22T16:01:36.892Z,4.35
2022-10-22T16:06:43.363Z,5.50
2022-10-22T16:11:46.746Z,5.00
2022-10-22T16:16:51.808Z,7.07
2022-10-22T16:21:59.377Z,6.13
2022-10-22T16:27:02.291Z,7.78
2022-10-22T16:32:08.089Z,5.47
2022-10-22T16:37:12.292Z,6.40
2022-10-22T16:42:22.402Z,14.40
2022-10-22T16:47:25.580Z,7.13
2022-10-22T16:52:34.742Z,9.82
2022-10-22T16:58:02.067Z,7.53
2022-10-22T17:03:08.563Z,6.53
2022-10-22T17:08:19.966Z,7.20
2022-10-22T17:13:27.446Z,6.30
2022-10-22T17:23:55.339Z,6.85
2022-10-22T17:29:01.496Z,6.97
2022-10-22T17:34:09.284Z,6.13
2022-10-22T17:39:18.978Z,7.80
2022-10-22T17:44:22.141Z,6.60
2022-10-22T17:49:25.009Z,7.10
2022-10-22T17:54:29.544Z,8.05
2022-10-22T17:59:33.242Z,8.65
2022-10-22T18:04:36.943Z,9.13
2022-10-22T18:09:42.864Z,8.43
2022-10-22T18:14:47.438Z,7.40
2022-10-22T18:19:50.508Z,8.82
2022-10-22T18:24:55.374Z,7.47
2022-10-22T18:29:58.228Z,8.80
2022-10-22T18:35:01.324Z,6.72
2022-10-22T18:40:08.764Z,7.45
2022-10-22T18:45:17.696Z,6.45
2022-10-22T18:50:20.726Z,6.10
2022-10-22T18:55:25.000Z,7.20
2022-10-22T19:00:32.486Z,8.80
2022-10-22T19:05:35.950Z,7.07
2022-10-22T19:10:40.400Z,6.55
2022-10-22T19:15:43.293Z,13.95
2022-10-22T19:20:48.471Z,7.72
2022-10-22T19:26:02.521Z,10.90
2022-10-22T19:31:06.449Z,8.35
2022-10-22T19:36:11.898Z,8.50
2022-10-22T19:41:21.231Z,8.30
2022-10-22T19:46:25.697Z,8.05
2022-10-22T19:51:30.778Z,8.35
2022-10-22T19:56:37.679Z,11.93
2022-10-22T20:01:40.546Z,11.35
2022-10-22T20:06:46.637Z,9.90
2022-10-22T20:11:50.975Z,10.75
2022-10-22T20:17:01.246Z,11.07
2022-10-22T20:22:28.829Z,10.63
2022-10-22T20:28:23.827Z,8.95
2022-10-22T20:33:29.438Z,9.18
2022-10-22T20:38:32.387Z,8.65
2022-10-22T20:43:35.711Z,9.30
2022-10-22T20:48:40.938Z,10.13
2022-10-22T20:53:43.818Z,10.07
2022-10-22T20:58:48.590Z,9.73
2022-10-22T21:03:53.959Z,10.35
2022-10-22T21:08:56.955Z,10.13
2022-10-22T21:14:03.681Z,10.50
2022-10-22T21:19:07.813Z,12.38
2022-10-22T21:24:11.169Z,11.85
2022-10-22T21:29:14.483Z,12.40
2022-10-22T21:34:18.729Z,14.68
2022-10-22T21:39:21.617Z,10.95
2022-10-22T21:44:24.416Z,11.90
2022-10-22T21:49:28.507Z,12.15
2022-10-22T21:54:31.384Z,11.48
2022-10-22T21:59:37.629Z,12.40
2022-10-22T22:04:42.628Z,13.07
2022-10-22T22:09:45.430Z,11.88
2022-10-22T22:14:50.707Z,12.32
2022-10-22T22:19:55.016Z,12.80
2022-10-22T22:24:57.809Z,12.85
2022-10-22T22:30:03.141Z,14.60
2022-10-22T22:35:07.976Z,13.05
2022-10-22T22:40:13.958Z,13.45
2022-10-22T22:45:16.980Z,14.30
2022-10-22T22:50:21.203Z,14.70
2022-10-22T22:55:24.107Z,14.48
2022-10-22T23:00:27.058Z,14.45
2022-10-22T23:05:31.224Z,15.20
2022-10-22T23:10:33.978Z,16.80
2022-10-22T23:15:40.318Z,15.20
2022-10-22T23:20:44.401Z,14.82
2022-10-22T23:25:47.231Z,15.68
2022-10-22T23:30:52.933Z,14.70
2022-10-22T23:35:57.211Z,14.77
2022-10-22T23:41:00.257Z,17.15
2022-10-22T23:46:03.059Z,15.20
2022-10-22T23:51:08.678Z,14.85
2022-10-22T23:56:13.945Z,14.80
